tititudorancea.com
Station Historical Data
Daily Summary for January 23, 2018 Units:  Metric    English   Both
« Previous Day
Next Day »
Daily Weekly Monthly Yearly Custom
  High: Low: Average:
Temperature: -17.8 °C 13.9 °C 21.9 °C
Dew Point: -17.8 °C 8.5 °C 9.8 °C
Humidity: Humidity % 29 % 48 %
Wind Speed: 0 km/h 8.5 km/h 14.2 km/h
Wind Gust: 0 km/h - -
Wind:- - South
Pressure: 0 hPa 1007 hPa -
Precipitation: 0 mm    
Historical Graphs
 
 
Ararat weather Find more about Weather in Ararat, AU


 



 


Tabular Data for January 23, 2018
Time Temperature Dew Point Pressure Wind Wind Speed Wind Gust Humidity Rainfall Rate (Hourly)
-17.8 °C -17.8 °C 0 hPa Calm     Humidity % 0 mm
00:00 14 °C 9.8 °C 1009.4 hPa SSW 12.9 km/h 20.4 km/h 76 % 0 mm
08:43 13.9 °C 11.1 °C 1010.7 hPa South 20.4 km/h 20.4 km/h 83 % 0 mm
08:48 14.1 °C 11.1 °C 1010.7 hPa SSE 14 km/h 19.3 km/h 82 % 0 mm
08:53 14.3 °C 11.1 °C 1010.7 hPa South 13.5 km/h 17.7 km/h 81 % 0 mm
08:58 14.9 °C 11.5 °C 1011.1 hPa South 17.4 km/h 25.9 km/h 80 % 0 mm
09:03 15.6 °C 11.4 °C 1011.1 hPa South 13.8 km/h 29.6 km/h 76 % 0 mm
09:08 15.5 °C 11.1 °C 1011.1 hPa South 17.4 km/h 22.2 km/h 75 % 0 mm
09:13 15.5 °C 11.1 °C 1011.1 hPa South 14.8 km/h 24.1 km/h 75 % 0 mm
09:18 15.6 °C 11.2 °C 1010.7 hPa South 12.2 km/h 25.9 km/h 75 % 0 mm
09:23 15.8 °C 11 °C 1010.7 hPa South 16.3 km/h 24.1 km/h 73 % 0 mm
09:28 15.8 °C 10.9 °C 1010.7 hPa SSE 14 km/h 20.4 km/h 73 % 0 mm
09:33 16.1 °C 11.1 °C 1010.7 hPa South 16.3 km/h 24.1 km/h 72 % 0 mm
09:38 16.3 °C 11.2 °C 1010.4 hPa SSE 17.9 km/h 22.2 km/h 72 % 0 mm
09:43 16.4 °C 11.1 °C 1010.4 hPa South 12.9 km/h 20.4 km/h 71 % 0 mm
09:48 16.7 °C 11.2 °C 1010.4 hPa SSE 15.4 km/h 27.8 km/h 70 % 0 mm
09:53 16.9 °C 11.2 °C 1010.4 hPa SE 10.9 km/h 20.4 km/h 69 % 0 mm
09:58 17.2 °C 11.3 °C 1010.4 hPa SSE 14.6 km/h 20.4 km/h 68 % 0 mm
10:03 17.7 °C 11.5 °C 1010.4 hPa South 14.6 km/h 18.5 km/h 67 % 0 mm
10:08 17.8 °C 11.3 °C 1010.4 hPa SE 12.6 km/h 16.7 km/h 66 % 0 mm
10:13 17.9 °C 11.3 °C 1010.4 hPa SE 14 km/h 22.2 km/h 65 % 0 mm
10:18 18.1 °C 11.4 °C 1010.4 hPa South 13.7 km/h 18.5 km/h 65 % 0 mm
10:23 18.3 °C 11.3 °C 1010.4 hPa South 11.9 km/h 14.8 km/h 64 % 0 mm
10:28 18.4 °C 11.3 °C 1010.4 hPa South 9 km/h 18.5 km/h 63 % 0 mm
10:33 18.4 °C 11.3 °C 1010.4 hPa SSE 14.6 km/h 22.2 km/h 63 % 0 mm
10:38 18.7 °C 11.1 °C 1010.4 hPa South 13.4 km/h 18.5 km/h 61 % 0 mm
10:43 18.8 °C 11.2 °C 1010.4 hPa SSE 11.4 km/h 18.5 km/h 61 % 0 mm
10:48 19.1 °C 11.2 °C 1010.4 hPa South 15.6 km/h 24.1 km/h 60 % 0 mm
10:53 19.1 °C 10.8 °C 1010.4 hPa North 17.7 km/h 25.9 km/h 59 % 0 mm
10:58 19.4 °C 11.2 °C 1010.4 hPa South 12.2 km/h 24.1 km/h 59 % 0 mm
11:03 19.5 °C 10.5 °C 1010.4 hPa SSW 18.5 km/h 24.1 km/h 56 % 0 mm
11:08 19.8 °C 11.1 °C 1010.4 hPa South 14.8 km/h 20.4 km/h 57 % 0 mm
11:13 19.9 °C 10.6 °C 1010.4 hPa SW 13 km/h 19.3 km/h 55 % 0 mm
11:18 20.1 °C 10.8 °C 1010.4 hPa SE 14.3 km/h 20.9 km/h 55 % 0 mm
11:23 20.4 °C 10.6 °C 1010 hPa SSE 11.4 km/h 16.7 km/h 53 % 0 mm
11:28 20.6 °C 10.4 °C 1010 hPa South 18.7 km/h 24.1 km/h 52 % 0 mm
11:33 20.9 °C 10.4 °C 1010 hPa South 14.2 km/h 22.5 km/h 51 % 0 mm
11:48 20.9 °C 10.1 °C 1010 hPa SSE 15.8 km/h 22.5 km/h 50 % 0 mm
11:53 21.6 °C 10.4 °C 1010 hPa SSE 9.7 km/h 17.7 km/h 49 % 0 mm
11:58 22.1 °C 10.2 °C 1010 hPa SE 9.8 km/h 18.5 km/h 47 % 0 mm
12:08 21.8 °C 9.7 °C 1010 hPa SSW 17.5 km/h 24.1 km/h 46 % 0 mm
12:13 22.1 °C 9.9 °C 1010 hPa SE 15.1 km/h 18.5 km/h 46 % 0 mm
12:18 22.2 °C 9.4 °C 1010 hPa SSW 19.5 km/h 27.4 km/h 44 % 0 mm
12:23 22.4 °C 9.9 °C 1010 hPa SSW 20 km/h 33.3 km/h 45 % 0 mm
12:28 22.6 °C 9.7 °C 1010 hPa SSE 15.4 km/h 24.1 km/h 44 % 0 mm
12:33 22.8 °C 9.6 °C 1009.7 hPa SSE 15 km/h 22.2 km/h 43 % 0 mm
12:38 23 °C 9.4 °C 1009.7 hPa South 14.8 km/h 18.5 km/h 42 % 0 mm
12:43 23.3 °C 9.7 °C 1009.7 hPa SSE 13.4 km/h 22.2 km/h 42 % 0 mm
12:48 23.3 °C 8.9 °C 1009.7 hPa South 18.7 km/h 22.2 km/h 40 % 0 mm
12:53 23.1 °C 9.1 °C 1009.7 hPa South 8.5 km/h 11.1 km/h 41 % 0 mm
12:58 23.4 °C 9.1 °C 1009.7 hPa SSW 16.9 km/h 22.2 km/h 40 % 0 mm
13:03 23.7 °C 9.6 °C 1009.4 hPa SSE 11.9 km/h 18.5 km/h 41 % 0 mm
13:08 24.2 °C 9 °C 1009.4 hPa North 19.6 km/h 24.1 km/h 38 % 0 mm
13:13 24.1 °C 8.8 °C 1009.4 hPa South 12.7 km/h 18.5 km/h 38 % 0 mm
13:23 24.2 °C 9 °C 1009.4 hPa SE 16.7 km/h 27.8 km/h 38 % 0 mm
13:28 25 °C 8.9 °C 1009.4 hPa South 13.2 km/h 18.5 km/h 36 % 0 mm
13:43 24.9 °C 9.2 °C 1009 hPa South 9.8 km/h 14.8 km/h 37 % 0 mm
13:48 25.1 °C 9 °C 1009 hPa South 10.3 km/h 14.8 km/h 36 % 0 mm
13:53 25.3 °C 8.7 °C 1009 hPa SSE 16.1 km/h 24.1 km/h 35 % 0 mm
14:03 25.5 °C 8.9 °C 1008.7 hPa South 15 km/h 19.3 km/h 35 % 0 mm
14:08 25.7 °C 9.1 °C 1008.7 hPa SSE 18 km/h 24.1 km/h 35 % 0 mm
14:13 26.2 °C 9.1 °C 1008.7 hPa SSW 9.3 km/h 13 km/h 34 % 0 mm
14:18 26.2 °C 8.7 °C 1008.7 hPa South 14.6 km/h 22.2 km/h 33 % 0 mm
14:23 26.4 °C 9.3 °C 1008.7 hPa South 11.9 km/h 17.7 km/h 34 % 0 mm
14:28 26.5 °C 8.9 °C 1008.4 hPa SW 10.9 km/h 24.1 km/h 33 % 0 mm
14:33 26.6 °C 8.5 °C 1008.4 hPa South 15.4 km/h 16.7 km/h 32 % 0 mm
14:38 26.2 °C 9.1 °C 1008.4 hPa SSW 18.3 km/h 27.8 km/h 34 % 0 mm
14:43 26.4 °C 9.3 °C 1008.4 hPa South 15.4 km/h 19.3 km/h 34 % 0 mm
14:48 26.6 °C 8.9 °C 1008.4 hPa SE 15.9 km/h 20.4 km/h 33 % 0 mm
14:53 27 °C 9.3 °C 1008.4 hPa SSE 13.8 km/h 20.9 km/h 33 % 0 mm
14:58 27.1 °C 8.9 °C 1008.4 hPa SSE 15.8 km/h 20.4 km/h 32 % 0 mm
15:03 27.1 °C 9.4 °C 1008.4 hPa SSW 13.7 km/h 18.5 km/h 33 % 0 mm
15:08 27.3 °C 9.1 °C 1008.4 hPa South 20.6 km/h 27.8 km/h 32 % 0 mm
15:13 27.2 °C 8.6 °C 1008.4 hPa North 13.4 km/h 24.1 km/h 31 % 0 mm
15:18 27.4 °C 9.2 °C 1008.4 hPa SSW 15.4 km/h 18.5 km/h 32 % 0 mm
15:23 27.6 °C 9.9 °C 1008 hPa SE 8.7 km/h 18.5 km/h 33 % 0 mm
15:38 28.2 °C 9.9 °C 1008 hPa SSE 10.6 km/h 20.4 km/h 32 % 0 mm
15:43 28.3 °C 9.6 °C 1008 hPa SSW 18 km/h 25.9 km/h 31 % 0 mm
15:53 28 °C 9.3 °C 1007.7 hPa SSE 14.6 km/h 18.5 km/h 31 % 0 mm
16:03 28.2 °C 9.5 °C 1007.7 hPa SE 13 km/h 27.8 km/h 31 % 0 mm
16:08 28.2 °C 8.5 °C 1007.7 hPa SSE 25.7 km/h 33.3 km/h 29 % 0 mm
16:18 28.3 °C 9.1 °C 1007.7 hPa South 10 km/h 20.4 km/h 30 % 0 mm
16:23 28.5 °C 8.7 °C 1007.7 hPa South 14.3 km/h 25.9 km/h 29 % 0 mm
16:33 28.1 °C 8.9 °C 1007.3 hPa SE 14.8 km/h 20.9 km/h 30 % 0 mm
16:43 28.6 °C 8.8 °C 1007.3 hPa SSW 15.8 km/h 20.9 km/h 29 % 0 mm
16:48 28.4 °C 9.2 °C 1007.3 hPa South 14.5 km/h 18.5 km/h 30 % 0 mm
16:53 28.4 °C 8.7 °C 1007.3 hPa South 15 km/h 24.1 km/h 29 % 0 mm
16:58 28.3 °C 9.1 °C 1007.3 hPa SSE 15.8 km/h 24.1 km/h 30 % 0 mm
17:03 28.1 °C 8.9 °C 1007.3 hPa SSE 14 km/h 22.2 km/h 30 % 0 mm
17:08 28.1 °C 8.9 °C 1007.3 hPa SE 17.1 km/h 24.1 km/h 30 % 0 mm
17:13 28.2 °C 8.9 °C 1007.3 hPa SE 12.9 km/h 19.3 km/h 30 % 0 mm
17:18 28.2 °C 8.9 °C 1007.3 hPa SSW 15.3 km/h 31.5 km/h 30 % 0 mm
17:23 28.1 °C 8.9 °C 1007.3 hPa SSE 15.6 km/h 20.4 km/h 30 % 0 mm
17:28 27.9 °C 8.8 °C 1007.3 hPa South 14.8 km/h 22.2 km/h 30 % 0 mm
17:43 27.9 °C 8.7 °C 1007.3 hPa ESE 15.4 km/h 22.5 km/h 30 % 0 mm
17:48 28.1 °C 8.8 °C 1007.3 hPa SSW 12.6 km/h 27.4 km/h 30 % 0 mm
17:53 27.9 °C 8.8 °C 1007 hPa South 16.4 km/h 29.6 km/h 30 % 0 mm
17:58 28.1 °C 8.9 °C 1007.3 hPa SSE 13 km/h 16.7 km/h 30 % 0 mm
18:03 28.1 °C 8.9 °C 1007 hPa South 12.9 km/h 22.2 km/h 30 % 0 mm
18:08 27.9 °C 8.7 °C 1007 hPa SE 14.3 km/h 27.8 km/h 30 % 0 mm
18:13 27.9 °C 8.8 °C 1007 hPa SSW 16.4 km/h 27.8 km/h 30 % 0 mm
18:18 27.7 °C 9.1 °C 1007 hPa SSW 16.9 km/h 24.1 km/h 31 % 0 mm
18:23 27.4 °C 8.8 °C 1007 hPa SSE 14.3 km/h 24.1 km/h 31 % 0 mm
18:33 27.7 °C 9 °C 1007.3 hPa South 15.1 km/h 31.5 km/h 31 % 0 mm
18:38 27.5 °C 9.3 °C 1007.3 hPa South 11.4 km/h 18.5 km/h 32 % 0 mm
18:48 27.2 °C 9.6 °C 1007.3 hPa SSW 12.2 km/h 19.3 km/h 33 % 0 mm
18:53 27.1 °C 9.4 °C 1007.3 hPa South 9 km/h 24.1 km/h 33 % 0 mm
18:58 27.1 °C 9.9 °C 1007.3 hPa SSW 13.2 km/h 27.8 km/h 34 % 0 mm
19:03 26.9 °C 9.7 °C 1007.3 hPa South 16.4 km/h 22.2 km/h 34 % 0 mm
19:08 26.7 °C 9.9 °C 1007.3 hPa South 13.5 km/h 18.5 km/h 35 % 0 mm
19:13 26.5 °C 9.8 °C 1007.3 hPa South 15.8 km/h 27.8 km/h 35 % 0 mm
19:18 26.5 °C 10.2 °C 1007.3 hPa South 11.3 km/h 16.7 km/h 36 % 0 mm
19:23 26.2 °C 10.4 °C 1007.7 hPa South 18.2 km/h 25.9 km/h 37 % 0 mm
19:28 26.1 °C 10.6 °C 1007.7 hPa SSW 16.1 km/h 24.1 km/h 38 % 0 mm
19:33 25.9 °C 10.5 °C 1007.7 hPa SSW 15 km/h 27.8 km/h 38 % 0 mm
19:43 25.4 °C 10.4 °C 1008 hPa South 16.3 km/h 27.8 km/h 39 % 0 mm
19:48 25.2 °C 11.1 °C 1008.4 hPa South 16.6 km/h 25.7 km/h 41 % 0 mm
19:53 24.7 °C 10.9 °C 1008 hPa South 21.7 km/h 27.8 km/h 42 % 0 mm
20:03 23.9 °C 10.9 °C 1008.4 hPa South 18.5 km/h 31.5 km/h 44 % 0 mm
20:08 23.6 °C 11 °C 1008.4 hPa South 25.7 km/h 33.3 km/h 45 % 0 mm
20:13 23.4 °C 11.2 °C 1008.4 hPa South 11.9 km/h 16.7 km/h 46 % 0 mm
20:28 22.4 °C 10.9 °C 1008.7 hPa South 23.2 km/h 24.1 km/h 48 % 0 mm
20:33 22.1 °C 10.9 °C 1008.7 hPa South 15.9 km/h 25.9 km/h 49 % 0 mm
20:39 21.8 °C 10.6 °C 1008.7 hPa South 16.4 km/h 25.9 km/h 49 % 0 mm
20:44 21.5 °C 10.6 °C 1008.7 hPa South 16.7 km/h 22.2 km/h 50 % 0 mm
20:49 21.3 °C 10.7 °C 1008.7 hPa South 12.4 km/h 18.5 km/h 51 % 0 mm
20:54 21 °C 10.5 °C 1008.7 hPa SSW 17.4 km/h 24.1 km/h 51 % 0 mm
20:59 20.8 °C 10.6 °C 1009 hPa South 14.5 km/h 25.9 km/h 52 % 0 mm
21:04 20.6 °C 10.7 °C 1009 hPa South 11.6 km/h 20.4 km/h 53 % 0 mm
21:09 20.4 °C 10.5 °C 1009 hPa South 14.2 km/h 24.1 km/h 53 % 0 mm
21:19 19.9 °C 10.6 °C 1009 hPa SSW 10 km/h 20.4 km/h 55 % 0 mm
21:24 19.5 °C 10.5 °C 1009 hPa SSW 14.5 km/h 22.2 km/h 56 % 0 mm
21:29 19.3 °C 10.6 °C 1009 hPa SSW 19 km/h 20.9 km/h 57 % 0 mm
21:34 19 °C 10.6 °C 1009 hPa South 12.4 km/h 16.7 km/h 58 % 0 mm
21:39 18.8 °C 10.3 °C 1009.4 hPa South 11.4 km/h 17.7 km/h 58 % 0 mm
21:44 18.6 °C 10.4 °C 1009.4 hPa South 9 km/h 13 km/h 59 % 0 mm
21:49 18.3 °C 10.2 °C 1009 hPa SSW 11.9 km/h 18.5 km/h 59 % 0 mm
21:54 18.2 °C 10.3 °C 1009.4 hPa SSW 12.4 km/h 19.3 km/h 60 % 0 mm
21:59 17.9 °C 10.3 °C 1009.4 hPa South 9.5 km/h 22.2 km/h 61 % 0 mm
22:04 17.8 °C 10.2 °C 1009.4 hPa South 11.1 km/h 16.7 km/h 61 % 0 mm
22:09 17.7 °C 10.3 °C 1009.4 hPa SSW 10.6 km/h 18.5 km/h 62 % 0 mm
22:14 17.5 °C 10.4 °C 1009.4 hPa SSW 10.6 km/h 19.3 km/h 63 % 0 mm
22:19 17.3 °C 10.2 °C 1009.4 hPa South 14.3 km/h 22.2 km/h 63 % 0 mm
22:24 17.2 °C 10.3 °C 1009.4 hPa SSW 14.3 km/h 20.9 km/h 64 % 0 mm
22:29 17 °C 10.1 °C 1009.4 hPa South 9.8 km/h 18.5 km/h 64 % 0 mm
22:34 16.9 °C 10.3 °C 1009.4 hPa North 14.8 km/h 20.9 km/h 65 % 0 mm
22:39 16.8 °C 10.2 °C 1009.4 hPa South 10.9 km/h 14.8 km/h 65 % 0 mm
22:44 16.6 °C 10.2 °C 1009.4 hPa North 10.9 km/h 16.7 km/h 66 % 0 mm
22:49 16.5 °C 10.1 °C 1009.4 hPa South 9.7 km/h 14.8 km/h 66 % 0 mm
22:54 16.4 °C 10.2 °C 1009.4 hPa SSW 15 km/h 20.4 km/h 67 % 0 mm
22:59 16.3 °C 10.1 °C 1009.4 hPa SSW 10.3 km/h 16.7 km/h 67 % 0 mm
23:04 16.1 °C 10.2 °C 1009.4 hPa South 12.6 km/h 16.7 km/h 68 % 0 mm
23:09 16 °C 10.1 °C 1009.4 hPa SSW 10.1 km/h 18.5 km/h 68 % 0 mm
23:14 15.9 °C 10.1 °C 1009.4 hPa South 9.5 km/h 16.7 km/h 68 % 0 mm
23:24 15.7 °C 10.1 °C 1009.4 hPa SSW 13.7 km/h 20.4 km/h 69 % 0 mm
23:29 15.7 °C 10 °C 1009.4 hPa SSW 13 km/h 16.1 km/h 69 % 0 mm
23:34 15.6 °C 9.9 °C 1009.4 hPa SSW 10.5 km/h 20.4 km/h 69 % 0 mm
23:44 15.4 °C 10 °C 1009 hPa North 13.5 km/h 18.5 km/h 70 % 0 mm
23:49 15.4 °C 9.9 °C 1009.4 hPa SSW 13 km/h 16.7 km/h 70 % 0 mm
23:59 15.2 °C 10 °C 1009 hPa South 10.9 km/h 14.8 km/h 71 % 0 mm
Ararat Weather
Compliments of Weather Underground - 1.5 mb
Click here to send mail.


ABOUT

Live weather data from Ararat, Victoria, Australia, 3377
Data uploaded from Cumulus every 5 minutes to Weather Underground.
This site then downloads the raw data for formatting and display.
Metric and imperial data can be displayed. Graphs and historical data available.
Includes Sun and Moon times and rain image live from BOM.

Check out Ararat Weather on Facebook, Twitter and Google +

Help support ongoing costs by checking out the ads





Follow @AraratWeather